sensor_id;sensor_type;location;lat;lon;timestamp;P1;durP1;ratioP1;P2;durP2;ratioP2
64826;SDS011;51265;53.972;12.286;2023-07-16T00:00:54;2.50;;;1.70;;
64826;SDS011;51265;53.972;12.286;2023-07-16T00:03:20;3.58;;;1.92;;
64826;SDS011;51265;53.972;12.286;2023-07-16T00:05:49;2.65;;;2.05;;
64826;SDS011;51265;53.972;12.286;2023-07-16T00:08:17;2.20;;;1.88;;
64826;SDS011;51265;53.972;12.286;2023-07-16T00:10:43;3.08;;;2.10;;
64826;SDS011;51265;53.972;12.286;2023-07-16T00:13:10;4.15;;;1.70;;
64826;SDS011;51265;53.972;12.286;2023-07-16T00:15:37;4.43;;;2.10;;
64826;SDS011;51265;53.972;12.286;2023-07-16T00:18:03;3.08;;;2.00;;
64826;SDS011;51265;53.972;12.286;2023-07-16T00:20:32;3.95;;;2.10;;
64826;SDS011;51265;53.972;12.286;2023-07-16T00:22:59;2.67;;;1.85;;
64826;SDS011;51265;53.972;12.286;2023-07-16T00:25:25;4.50;;;2.05;;
64826;SDS011;51265;53.972;12.286;2023-07-16T00:27:52;2.92;;;2.20;;
64826;SDS011;51265;53.972;12.286;2023-07-16T00:30:19;3.30;;;2.28;;
64826;SDS011;51265;53.972;12.286;2023-07-16T00:32:45;3.60;;;1.90;;
64826;SDS011;51265;53.972;12.286;2023-07-16T00:35:12;3.67;;;2.35;;
64826;SDS011;51265;53.972;12.286;2023-07-16T00:37:42;3.05;;;2.00;;
64826;SDS011;51265;53.972;12.286;2023-07-16T00:40:08;3.67;;;2.10;;
64826;SDS011;51265;53.972;12.286;2023-07-16T00:42:35;3.42;;;2.42;;
64826;SDS011;51265;53.972;12.286;2023-07-16T00:45:02;3.65;;;2.05;;
64826;SDS011;51265;53.972;12.286;2023-07-16T00:47:36;3.33;;;2.08;;
64826;SDS011;51265;53.972;12.286;2023-07-16T00:50:02;3.03;;;2.47;;
64826;SDS011;51265;53.972;12.286;2023-07-16T00:52:32;3.30;;;2.20;;
64826;SDS011;51265;53.972;12.286;2023-07-16T00:54:59;6.22;;;2.60;;
64826;SDS011;51265;53.972;12.286;2023-07-16T00:57:26;5.00;;;2.50;;
64826;SDS011;51265;53.972;12.286;2023-07-16T00:59:53;3.75;;;2.30;;
64826;SDS011;51265;53.972;12.286;2023-07-16T01:02:19;4.25;;;2.63;;
64826;SDS011;51265;53.972;12.286;2023-07-16T01:04:47;6.55;;;2.63;;
64826;SDS011;51265;53.972;12.286;2023-07-16T01:07:14;2.92;;;2.17;;
64826;SDS011;51265;53.972;12.286;2023-07-16T01:09:43;4.13;;;2.42;;
64826;SDS011;51265;53.972;12.286;2023-07-16T01:12:11;4.70;;;2.10;;
64826;SDS011;51265;53.972;12.286;2023-07-16T01:14:41;5.80;;;2.03;;
64826;SDS011;51265;53.972;12.286;2023-07-16T01:17:10;4.38;;;2.22;;
64826;SDS011;51265;53.972;12.286;2023-07-16T01:19:37;5.75;;;1.85;;
64826;SDS011;51265;53.972;12.286;2023-07-16T01:22:10;3.38;;;1.70;;
64826;SDS011;51265;53.972;12.286;2023-07-16T01:25:10;4.75;;;1.55;;
64826;SDS011;51265;53.972;12.286;2023-07-16T01:30:33;3.30;;;1.45;;
64826;SDS011;51265;53.972;12.286;2023-07-16T01:33:03;4.75;;;1.60;;
64826;SDS011;51265;53.972;12.286;2023-07-16T01:35:31;2.75;;;1.05;;
64826;SDS011;51265;53.972;12.286;2023-07-16T01:38:00;9.68;;;1.25;;
64826;SDS011;51265;53.972;12.286;2023-07-16T01:40:27;2.20;;;0.95;;
64826;SDS011;51265;53.972;12.286;2023-07-16T01:42:56;4.35;;;0.98;;
64826;SDS011;51265;53.972;12.286;2023-07-16T01:45:23;4.30;;;1.02;;
64826;SDS011;51265;53.972;12.286;2023-07-16T01:47:55;2.20;;;1.02;;
64826;SDS011;51265;53.972;12.286;2023-07-16T01:50:34;2.88;;;0.90;;
64826;SDS011;51265;53.972;12.286;2023-07-16T01:53:01;1.90;;;0.88;;
64826;SDS011;51265;53.972;12.286;2023-07-16T01:55:28;1.95;;;0.60;;
64826;SDS011;51265;53.972;12.286;2023-07-16T01:57:55;2.53;;;1.10;;
64826;SDS011;51265;53.972;12.286;2023-07-16T02:00:22;6.97;;;1.13;;
64826;SDS011;51265;53.972;12.286;2023-07-16T02:02:51;4.20;;;0.95;;
64826;SDS011;51265;53.972;12.286;2023-07-16T02:05:17;1.73;;;0.90;;
64826;SDS011;51265;53.972;12.286;2023-07-16T02:07:44;4.72;;;1.20;;
64826;SDS011;51265;53.972;12.286;2023-07-16T02:10:11;2.90;;;1.27;;
64826;SDS011;51265;53.972;12.286;2023-07-16T02:12:37;2.70;;;1.20;;
64826;SDS011;51265;53.972;12.286;2023-07-16T02:15:04;4.47;;;1.00;;
64826;SDS011;51265;53.972;12.286;2023-07-16T02:17:35;2.00;;;0.95;;
64826;SDS011;51265;53.972;12.286;2023-07-16T02:20:01;6.65;;;1.38;;
64826;SDS011;51265;53.972;12.286;2023-07-16T02:22:31;5.97;;;1.30;;
64826;SDS011;51265;53.972;12.286;2023-07-16T02:24:57;5.28;;;1.33;;
64826;SDS011;51265;53.972;12.286;2023-07-16T02:27:34;4.95;;;1.17;;
64826;SDS011;51265;53.972;12.286;2023-07-16T02:30:02;5.53;;;1.50;;
64826;SDS011;51265;53.972;12.286;2023-07-16T02:32:29;3.42;;;1.48;;
64826;SDS011;51265;53.972;12.286;2023-07-16T02:34:55;3.55;;;1.40;;
64826;SDS011;51265;53.972;12.286;2023-07-16T02:37:21;1.90;;;1.38;;
64826;SDS011;51265;53.972;12.286;2023-07-16T02:39:47;4.20;;;1.65;;
64826;SDS011;51265;53.972;12.286;2023-07-16T02:42:14;4.20;;;1.60;;
64826;SDS011;51265;53.972;12.286;2023-07-16T02:44:40;3.65;;;1.58;;
64826;SDS011;51265;53.972;12.286;2023-07-16T02:47:11;4.75;;;1.83;;
64826;SDS011;51265;53.972;12.286;2023-07-16T02:49:37;5.90;;;1.63;;
64826;SDS011;51265;53.972;12.286;2023-07-16T02:52:04;6.93;;;2.00;;
64826;SDS011;51265;53.972;12.286;2023-07-16T02:54:32;10.07;;;1.88;;
64826;SDS011;51265;53.972;12.286;2023-07-16T02:56:58;5.75;;;1.88;;
64826;SDS011;51265;53.972;12.286;2023-07-16T02:59:25;8.05;;;2.03;;
64826;SDS011;51265;53.972;12.286;2023-07-16T03:01:51;6.43;;;2.00;;
64826;SDS011;51265;53.972;12.286;2023-07-16T03:04:17;5.78;;;2.40;;
64826;SDS011;51265;53.972;12.286;2023-07-16T03:06:43;4.18;;;2.28;;
64826;SDS011;51265;53.972;12.286;2023-07-16T03:09:10;11.93;;;2.60;;
64826;SDS011;51265;53.972;12.286;2023-07-16T03:11:36;4.68;;;2.20;;
64826;SDS011;51265;53.972;12.286;2023-07-16T03:14:02;5.75;;;2.50;;
64826;SDS011;51265;53.972;12.286;2023-07-16T03:16:29;6.70;;;2.60;;
64826;SDS011;51265;53.972;12.286;2023-07-16T03:18:55;8.20;;;3.10;;
64826;SDS011;51265;53.972;12.286;2023-07-16T03:21:21;6.28;;;2.45;;
64826;SDS011;51265;53.972;12.286;2023-07-16T03:23:47;6.78;;;2.97;;
64826;SDS011;51265;53.972;12.286;2023-07-16T03:26:14;8.90;;;2.80;;
64826;SDS011;51265;53.972;12.286;2023-07-16T03:28:40;5.07;;;2.88;;
64826;SDS011;51265;53.972;12.286;2023-07-16T03:31:09;6.18;;;2.55;;
64826;SDS011;51265;53.972;12.286;2023-07-16T03:33:38;10.63;;;3.13;;
64826;SDS011;51265;53.972;12.286;2023-07-16T03:36:06;4.70;;;2.72;;
64826;SDS011;51265;53.972;12.286;2023-07-16T03:38:32;8.48;;;2.80;;
64826;SDS011;51265;53.972;12.286;2023-07-16T03:40:59;5.15;;;2.97;;
64826;SDS011;51265;53.972;12.286;2023-07-16T03:43:26;6.20;;;3.05;;
64826;SDS011;51265;53.972;12.286;2023-07-16T03:48:26;8.05;;;2.92;;
64826;SDS011;51265;53.972;12.286;2023-07-16T03:50:52;9.57;;;3.13;;
64826;SDS011;51265;53.972;12.286;2023-07-16T03:53:18;4.63;;;2.97;;
64826;SDS011;51265;53.972;12.286;2023-07-16T03:55:44;7.70;;;2.97;;
64826;SDS011;51265;53.972;12.286;2023-07-16T03:58:11;9.07;;;2.55;;
64826;SDS011;51265;53.972;12.286;2023-07-16T04:00:37;5.82;;;2.88;;
64826;SDS011;51265;53.972;12.286;2023-07-16T04:03:05;8.85;;;3.47;;
64826;SDS011;51265;53.972;12.286;2023-07-16T04:05:31;6.80;;;3.10;;
64826;SDS011;51265;53.972;12.286;2023-07-16T04:07:57;6.65;;;3.00;;
64826;SDS011;51265;53.972;12.286;2023-07-16T04:10:24;8.38;;;2.85;;
64826;SDS011;51265;53.972;12.286;2023-07-16T04:12:50;9.07;;;2.58;;
64826;SDS011;51265;53.972;12.286;2023-07-16T04:15:16;11.43;;;3.03;;
64826;SDS011;51265;53.972;12.286;2023-07-16T04:17:42;7.13;;;2.50;;
64826;SDS011;51265;53.972;12.286;2023-07-16T04:20:08;9.00;;;2.88;;
64826;SDS011;51265;53.972;12.286;2023-07-16T04:22:35;6.45;;;2.42;;
64826;SDS011;51265;53.972;12.286;2023-07-16T04:25:02;18.67;;;3.35;;
64826;SDS011;51265;53.972;12.286;2023-07-16T04:27:29;8.48;;;2.65;;
64826;SDS011;51265;53.972;12.286;2023-07-16T04:29:55;5.03;;;2.47;;
64826;SDS011;51265;53.972;12.286;2023-07-16T04:32:21;8.45;;;3.22;;
64826;SDS011;51265;53.972;12.286;2023-07-16T04:34:48;5.93;;;2.45;;
64826;SDS011;51265;53.972;12.286;2023-07-16T04:37:14;7.45;;;2.88;;
64826;SDS011;51265;53.972;12.286;2023-07-16T04:39:40;12.50;;;2.78;;
64826;SDS011;51265;53.972;12.286;2023-07-16T04:42:06;6.55;;;2.42;;
64826;SDS011;51265;53.972;12.286;2023-07-16T04:44:32;8.55;;;2.63;;
64826;SDS011;51265;53.972;12.286;2023-07-16T04:46:58;8.63;;;2.40;;
64826;SDS011;51265;53.972;12.286;2023-07-16T04:49:25;5.47;;;2.08;;
64826;SDS011;51265;53.972;12.286;2023-07-16T04:51:51;3.83;;;1.90;;
64826;SDS011;51265;53.972;12.286;2023-07-16T04:54:17;6.00;;;2.17;;
64826;SDS011;51265;53.972;12.286;2023-07-16T04:56:43;4.10;;;2.00;;
64826;SDS011;51265;53.972;12.286;2023-07-16T04:59:10;5.72;;;1.90;;
64826;SDS011;51265;53.972;12.286;2023-07-16T05:01:36;7.07;;;1.90;;
64826;SDS011;51265;53.972;12.286;2023-07-16T05:04:02;7.60;;;2.17;;
64826;SDS011;51265;53.972;12.286;2023-07-16T05:06:28;5.53;;;1.90;;
64826;SDS011;51265;53.972;12.286;2023-07-16T05:08:54;6.25;;;1.98;;
64826;SDS011;51265;53.972;12.286;2023-07-16T05:11:21;4.50;;;1.80;;
64826;SDS011;51265;53.972;12.286;2023-07-16T05:13:47;4.07;;;2.30;;
64826;SDS011;51265;53.972;12.286;2023-07-16T05:16:13;6.45;;;1.80;;
64826;SDS011;51265;53.972;12.286;2023-07-16T05:18:39;3.95;;;1.77;;
64826;SDS011;51265;53.972;12.286;2023-07-16T05:21:05;7.25;;;2.00;;
64826;SDS011;51265;53.972;12.286;2023-07-16T05:23:32;3.60;;;1.75;;
64826;SDS011;51265;53.972;12.286;2023-07-16T05:25:58;5.70;;;2.00;;
64826;SDS011;51265;53.972;12.286;2023-07-16T05:28:24;6.95;;;2.22;;
64826;SDS011;51265;53.972;12.286;2023-07-16T05:30:58;5.00;;;2.10;;
64826;SDS011;51265;53.972;12.286;2023-07-16T05:33:29;6.00;;;2.00;;
64826;SDS011;51265;53.972;12.286;2023-07-16T05:35:55;7.03;;;2.63;;
64826;SDS011;51265;53.972;12.286;2023-07-16T05:38:22;3.72;;;1.75;;
64826;SDS011;51265;53.972;12.286;2023-07-16T05:40:48;8.40;;;2.13;;
64826;SDS011;51265;53.972;12.286;2023-07-16T05:43:14;5.70;;;2.78;;
64826;SDS011;51265;53.972;12.286;2023-07-16T05:45:41;8.25;;;2.50;;
64826;SDS011;51265;53.972;12.286;2023-07-16T05:48:07;7.57;;;2.10;;
64826;SDS011;51265;53.972;12.286;2023-07-16T05:50:33;6.57;;;2.15;;
64826;SDS011;51265;53.972;12.286;2023-07-16T05:53:00;5.78;;;2.20;;
64826;SDS011;51265;53.972;12.286;2023-07-16T05:55:26;6.53;;;2.47;;
64826;SDS011;51265;53.972;12.286;2023-07-16T05:57:52;7.40;;;2.10;;
64826;SDS011;51265;53.972;12.286;2023-07-16T06:00:18;5.10;;;2.10;;
64826;SDS011;51265;53.972;12.286;2023-07-16T06:02:45;8.93;;;2.38;;
64826;SDS011;51265;53.972;12.286;2023-07-16T06:05:11;5.82;;;2.10;;
64826;SDS011;51265;53.972;12.286;2023-07-16T06:07:37;8.57;;;5.35;;
64826;SDS011;51265;53.972;12.286;2023-07-16T06:10:03;7.03;;;3.38;;
64826;SDS011;51265;53.972;12.286;2023-07-16T06:12:30;4.18;;;2.10;;
64826;SDS011;51265;53.972;12.286;2023-07-16T06:14:56;3.15;;;1.98;;
64826;SDS011;51265;53.972;12.286;2023-07-16T06:17:22;3.78;;;1.73;;
64826;SDS011;51265;53.972;12.286;2023-07-16T06:19:48;3.85;;;1.58;;
64826;SDS011;51265;53.972;12.286;2023-07-16T06:22:17;5.60;;;1.52;;
64826;SDS011;51265;53.972;12.286;2023-07-16T06:24:43;4.50;;;1.88;;
64826;SDS011;51265;53.972;12.286;2023-07-16T06:27:09;7.32;;;1.90;;
64826;SDS011;51265;53.972;12.286;2023-07-16T06:29:36;5.47;;;1.80;;
64826;SDS011;51265;53.972;12.286;2023-07-16T06:32:02;5.35;;;2.00;;
64826;SDS011;51265;53.972;12.286;2023-07-16T06:34:28;5.63;;;2.45;;
64826;SDS011;51265;53.972;12.286;2023-07-16T06:36:55;4.53;;;1.73;;
64826;SDS011;51265;53.972;12.286;2023-07-16T06:39:21;5.88;;;1.80;;
64826;SDS011;51265;53.972;12.286;2023-07-16T06:41:47;4.03;;;1.80;;
64826;SDS011;51265;53.972;12.286;2023-07-16T06:44:14;3.58;;;1.40;;
64826;SDS011;51265;53.972;12.286;2023-07-16T06:46:40;5.38;;;1.50;;
64826;SDS011;51265;53.972;12.286;2023-07-16T06:49:07;5.40;;;1.52;;
64826;SDS011;51265;53.972;12.286;2023-07-16T06:51:33;3.95;;;1.55;;
64826;SDS011;51265;53.972;12.286;2023-07-16T06:53:59;4.47;;;1.98;;
64826;SDS011;51265;53.972;12.286;2023-07-16T06:56:26;4.90;;;1.80;;
64826;SDS011;51265;53.972;12.286;2023-07-16T06:58:52;7.15;;;1.77;;
64826;SDS011;51265;53.972;12.286;2023-07-16T07:01:18;6.45;;;1.55;;
64826;SDS011;51265;53.972;12.286;2023-07-16T07:03:45;4.07;;;1.40;;
64826;SDS011;51265;53.972;12.286;2023-07-16T07:06:11;7.85;;;1.90;;
64826;SDS011;51265;53.972;12.286;2023-07-16T07:08:37;3.67;;;1.45;;
64826;SDS011;51265;53.972;12.286;2023-07-16T07:11:04;3.72;;;1.33;;
64826;SDS011;51265;53.972;12.286;2023-07-16T07:13:30;8.20;;;1.40;;
64826;SDS011;51265;53.972;12.286;2023-07-16T07:15:56;3.40;;;1.70;;
64826;SDS011;51265;53.972;12.286;2023-07-16T07:18:22;4.70;;;1.50;;
64826;SDS011;51265;53.972;12.286;2023-07-16T07:20:48;8.30;;;1.85;;
64826;SDS011;51265;53.972;12.286;2023-07-16T07:23:15;7.78;;;1.60;;
64826;SDS011;51265;53.972;12.286;2023-07-16T07:25:42;6.13;;;1.67;;
64826;SDS011;51265;53.972;12.286;2023-07-16T07:28:08;3.95;;;1.50;;
64826;SDS011;51265;53.972;12.286;2023-07-16T07:30:34;5.05;;;1.63;;
64826;SDS011;51265;53.972;12.286;2023-07-16T07:33:00;2.15;;;1.27;;
64826;SDS011;51265;53.972;12.286;2023-07-16T07:35:26;5.50;;;1.52;;
64826;SDS011;51265;53.972;12.286;2023-07-16T07:37:52;8.45;;;1.88;;
64826;SDS011;51265;53.972;12.286;2023-07-16T07:40:19;3.45;;;1.52;;
64826;SDS011;51265;53.972;12.286;2023-07-16T07:42:45;4.35;;;1.50;;
64826;SDS011;51265;53.972;12.286;2023-07-16T07:45:11;4.60;;;1.52;;
64826;SDS011;51265;53.972;12.286;2023-07-16T07:47:37;5.55;;;1.52;;
64826;SDS011;51265;53.972;12.286;2023-07-16T07:50:04;3.80;;;1.08;;
64826;SDS011;51265;53.972;12.286;2023-07-16T07:52:30;5.00;;;1.30;;
64826;SDS011;51265;53.972;12.286;2023-07-16T07:54:56;8.25;;;4.57;;
64826;SDS011;51265;53.972;12.286;2023-07-16T07:57:22;3.38;;;1.52;;
64826;SDS011;51265;53.972;12.286;2023-07-16T07:59:49;5.10;;;1.40;;
64826;SDS011;51265;53.972;12.286;2023-07-16T08:02:17;3.00;;;1.13;;
64826;SDS011;51265;53.972;12.286;2023-07-16T08:04:44;5.82;;;1.30;;
64826;SDS011;51265;53.972;12.286;2023-07-16T08:07:11;5.75;;;1.08;;
64826;SDS011;51265;53.972;12.286;2023-07-16T08:09:38;3.17;;;1.10;;
64826;SDS011;51265;53.972;12.286;2023-07-16T08:12:04;2.20;;;0.90;;
64826;SDS011;51265;53.972;12.286;2023-07-16T08:14:31;2.28;;;1.00;;
64826;SDS011;51265;53.972;12.286;2023-07-16T08:16:57;2.85;;;1.08;;
64826;SDS011;51265;53.972;12.286;2023-07-16T08:19:23;4.30;;;1.02;;
64826;SDS011;51265;53.972;12.286;2023-07-16T08:21:49;1.75;;;0.90;;
64826;SDS011;51265;53.972;12.286;2023-07-16T08:24:15;3.13;;;1.17;;
64826;SDS011;51265;53.972;12.286;2023-07-16T08:26:42;3.35;;;1.30;;
64826;SDS011;51265;53.972;12.286;2023-07-16T08:29:08;3.80;;;1.20;;
64826;SDS011;51265;53.972;12.286;2023-07-16T08:31:34;2.28;;;0.85;;
64826;SDS011;51265;53.972;12.286;2023-07-16T08:34:00;8.38;;;1.40;;
64826;SDS011;51265;53.972;12.286;2023-07-16T08:36:26;8.07;;;1.13;;
64826;SDS011;51265;53.972;12.286;2023-07-16T08:38:53;2.42;;;1.00;;
64826;SDS011;51265;53.972;12.286;2023-07-16T08:41:19;5.20;;;1.23;;
64826;SDS011;51265;53.972;12.286;2023-07-16T08:43:46;5.57;;;0.90;;
64826;SDS011;51265;53.972;12.286;2023-07-16T08:46:15;3.35;;;0.88;;
64826;SDS011;51265;53.972;12.286;2023-07-16T08:48:41;2.80;;;0.95;;
64826;SDS011;51265;53.972;12.286;2023-07-16T08:51:09;3.78;;;1.15;;
64826;SDS011;51265;53.972;12.286;2023-07-16T08:53:35;2.22;;;1.02;;
64826;SDS011;51265;53.972;12.286;2023-07-16T08:56:02;2.35;;;0.82;;
64826;SDS011;51265;53.972;12.286;2023-07-16T08:58:31;3.83;;;1.20;;
64826;SDS011;51265;53.972;12.286;2023-07-16T09:00:59;3.88;;;0.90;;
64826;SDS011;51265;53.972;12.286;2023-07-16T09:03:26;1.73;;;0.90;;
64826;SDS011;51265;53.972;12.286;2023-07-16T09:05:53;2.50;;;1.10;;
64826;SDS011;51265;53.972;12.286;2023-07-16T09:08:19;4.50;;;1.17;;
64826;SDS011;51265;53.972;12.286;2023-07-16T09:10:53;4.50;;;1.85;;
64826;SDS011;51265;53.972;12.286;2023-07-16T09:13:25;4.70;;;1.52;;
64826;SDS011;51265;53.972;12.286;2023-07-16T09:15:56;3.45;;;1.00;;
64826;SDS011;51265;53.972;12.286;2023-07-16T09:18:24;4.90;;;1.10;;
64826;SDS011;51265;53.972;12.286;2023-07-16T09:20:55;4.10;;;1.17;;
64826;SDS011;51265;53.972;12.286;2023-07-16T09:23:26;4.82;;;1.30;;
64826;SDS011;51265;53.972;12.286;2023-07-16T09:25:53;5.43;;;1.27;;
64826;SDS011;51265;53.972;12.286;2023-07-16T09:28:20;2.75;;;1.10;;
64826;SDS011;51265;53.972;12.286;2023-07-16T09:30:47;7.15;;;1.60;;
64826;SDS011;51265;53.972;12.286;2023-07-16T09:33:15;4.63;;;1.10;;
64826;SDS011;51265;53.972;12.286;2023-07-16T09:35:43;4.65;;;1.50;;
64826;SDS011;51265;53.972;12.286;2023-07-16T09:38:10;3.15;;;1.10;;
64826;SDS011;51265;53.972;12.286;2023-07-16T09:40:37;2.72;;;1.20;;
64826;SDS011;51265;53.972;12.286;2023-07-16T09:43:04;2.38;;;1.05;;
64826;SDS011;51265;53.972;12.286;2023-07-16T09:45:32;3.72;;;1.45;;
64826;SDS011;51265;53.972;12.286;2023-07-16T09:47:58;3.65;;;1.08;;
64826;SDS011;51265;53.972;12.286;2023-07-16T09:50:24;2.22;;;1.00;;
64826;SDS011;51265;53.972;12.286;2023-07-16T09:52:53;3.53;;;1.08;;
64826;SDS011;51265;53.972;12.286;2023-07-16T09:55:21;2.75;;;1.15;;
64826;SDS011;51265;53.972;12.286;2023-07-16T09:57:49;5.35;;;1.38;;
64826;SDS011;51265;53.972;12.286;2023-07-16T10:00:18;2.95;;;1.27;;
64826;SDS011;51265;53.972;12.286;2023-07-16T10:02:46;3.72;;;1.45;;
64826;SDS011;51265;53.972;12.286;2023-07-16T10:07:43;2.40;;;0.77;;
64826;SDS011;51265;53.972;12.286;2023-07-16T10:10:17;3.85;;;1.08;;
64826;SDS011;51265;53.972;12.286;2023-07-16T10:12:43;3.70;;;1.00;;
64826;SDS011;51265;53.972;12.286;2023-07-16T10:15:27;3.70;;;1.20;;
64826;SDS011;51265;53.972;12.286;2023-07-16T10:17:55;2.22;;;1.00;;
64826;SDS011;51265;53.972;12.286;2023-07-16T10:20:29;6.15;;;1.35;;
64826;SDS011;51265;53.972;12.286;2023-07-16T10:22:56;2.92;;;0.80;;
64826;SDS011;51265;53.972;12.286;2023-07-16T10:25:23;5.25;;;1.00;;
64826;SDS011;51265;53.972;12.286;2023-07-16T10:27:55;5.38;;;1.30;;
64826;SDS011;51265;53.972;12.286;2023-07-16T10:30:21;5.00;;;1.30;;
64826;SDS011;51265;53.972;12.286;2023-07-16T10:32:50;2.88;;;1.08;;
64826;SDS011;51265;53.972;12.286;2023-07-16T10:35:18;10.40;;;1.25;;
64826;SDS011;51265;53.972;12.286;2023-07-16T10:37:44;2.25;;;1.30;;
64826;SDS011;51265;53.972;12.286;2023-07-16T10:40:11;7.78;;;1.50;;
64826;SDS011;51265;53.972;12.286;2023-07-16T10:42:42;3.83;;;1.10;;
64826;SDS011;51265;53.972;12.286;2023-07-16T10:45:10;4.25;;;1.42;;
64826;SDS011;51265;53.972;12.286;2023-07-16T10:47:37;2.25;;;1.08;;
64826;SDS011;51265;53.972;12.286;2023-07-16T10:50:07;2.47;;;1.10;;
64826;SDS011;51265;53.972;12.286;2023-07-16T10:52:34;3.40;;;0.88;;
64826;SDS011;51265;53.972;12.286;2023-07-16T10:55:01;3.10;;;1.13;;
64826;SDS011;51265;53.972;12.286;2023-07-16T10:57:29;2.40;;;1.00;;
64826;SDS011;51265;53.972;12.286;2023-07-16T10:59:56;3.42;;;1.10;;
64826;SDS011;51265;53.972;12.286;2023-07-16T11:02:24;4.97;;;1.30;;
64826;SDS011;51265;53.972;12.286;2023-07-16T11:04:51;2.42;;;0.95;;
64826;SDS011;51265;53.972;12.286;2023-07-16T11:07:19;4.00;;;1.20;;
64826;SDS011;51265;53.972;12.286;2023-07-16T11:09:47;3.50;;;0.88;;
64826;SDS011;51265;53.972;12.286;2023-07-16T11:12:16;5.85;;;1.35;;
64826;SDS011;51265;53.972;12.286;2023-07-16T11:14:44;4.35;;;1.00;;
64826;SDS011;51265;53.972;12.286;2023-07-16T11:17:13;3.65;;;1.13;;
64826;SDS011;51265;53.972;12.286;2023-07-16T11:19:40;2.15;;;0.93;;
64826;SDS011;51265;53.972;12.286;2023-07-16T11:22:08;1.83;;;1.00;;
64826;SDS011;51265;53.972;12.286;2023-07-16T11:24:39;3.17;;;1.00;;
64826;SDS011;51265;53.972;12.286;2023-07-16T11:27:12;2.33;;;0.98;;
64826;SDS011;51265;53.972;12.286;2023-07-16T11:29:46;3.60;;;1.15;;
64826;SDS011;51265;53.972;12.286;2023-07-16T11:32:13;2.60;;;1.13;;
64826;SDS011;51265;53.972;12.286;2023-07-16T11:34:51;3.72;;;0.90;;
64826;SDS011;51265;53.972;12.286;2023-07-16T11:37:21;1.70;;;0.90;;
64826;SDS011;51265;53.972;12.286;2023-07-16T11:39:50;3.15;;;1.10;;
64826;SDS011;51265;53.972;12.286;2023-07-16T11:45:00;1.95;;;0.98;;
64826;SDS011;51265;53.972;12.286;2023-07-16T11:47:27;3.38;;;1.02;;
64826;SDS011;51265;53.972;12.286;2023-07-16T11:49:54;3.58;;;1.00;;
64826;SDS011;51265;53.972;12.286;2023-07-16T11:52:28;2.03;;;0.98;;
64826;SDS011;51265;53.972;12.286;2023-07-16T11:54:57;3.28;;;1.13;;
64826;SDS011;51265;53.972;12.286;2023-07-16T11:57:26;3.50;;;0.90;;
64826;SDS011;51265;53.972;12.286;2023-07-16T11:59:52;2.65;;;1.20;;
64826;SDS011;51265;53.972;12.286;2023-07-16T12:02:19;2.72;;;1.10;;
64826;SDS011;51265;53.972;12.286;2023-07-16T12:04:46;2.50;;;1.00;;
64826;SDS011;51265;53.972;12.286;2023-07-16T12:07:12;3.88;;;1.20;;
64826;SDS011;51265;53.972;12.286;2023-07-16T12:09:38;5.93;;;1.40;;
64826;SDS011;51265;53.972;12.286;2023-07-16T12:12:05;2.72;;;1.40;;
64826;SDS011;51265;53.972;12.286;2023-07-16T12:14:32;5.35;;;1.20;;
64826;SDS011;51265;53.972;12.286;2023-07-16T12:16:58;7.45;;;1.40;;
64826;SDS011;51265;53.972;12.286;2023-07-16T12:19:25;3.33;;;1.05;;
64826;SDS011;51265;53.972;12.286;2023-07-16T12:21:51;2.47;;;1.17;;
64826;SDS011;51265;53.972;12.286;2023-07-16T12:24:17;4.38;;;1.30;;
64826;SDS011;51265;53.972;12.286;2023-07-16T12:26:43;5.57;;;1.23;;
64826;SDS011;51265;53.972;12.286;2023-07-16T12:29:09;3.75;;;1.13;;
64826;SDS011;51265;53.972;12.286;2023-07-16T12:31:37;5.90;;;1.30;;
64826;SDS011;51265;53.972;12.286;2023-07-16T12:34:03;5.15;;;0.93;;
64826;SDS011;51265;53.972;12.286;2023-07-16T12:36:30;6.70;;;1.23;;
64826;SDS011;51265;53.972;12.286;2023-07-16T12:38:56;1.55;;;1.00;;
64826;SDS011;51265;53.972;12.286;2023-07-16T12:41:23;2.53;;;1.10;;
64826;SDS011;51265;53.972;12.286;2023-07-16T12:43:49;3.58;;;1.42;;
64826;SDS011;51265;53.972;12.286;2023-07-16T12:46:15;2.08;;;1.20;;
64826;SDS011;51265;53.972;12.286;2023-07-16T12:48:41;3.25;;;1.05;;
64826;SDS011;51265;53.972;12.286;2023-07-16T12:51:09;3.38;;;1.40;;
64826;SDS011;51265;53.972;12.286;2023-07-16T12:53:35;2.55;;;1.42;;
64826;SDS011;51265;53.972;12.286;2023-07-16T12:56:01;3.20;;;1.50;;
64826;SDS011;51265;53.972;12.286;2023-07-16T12:58:29;4.30;;;1.70;;
64826;SDS011;51265;53.972;12.286;2023-07-16T13:00:55;7.95;;;1.55;;
64826;SDS011;51265;53.972;12.286;2023-07-16T13:03:21;4.47;;;1.70;;
64826;SDS011;51265;53.972;12.286;2023-07-16T13:05:48;4.05;;;1.67;;
64826;SDS011;51265;53.972;12.286;2023-07-16T13:08:14;5.38;;;1.60;;
64826;SDS011;51265;53.972;12.286;2023-07-16T13:10:40;2.72;;;1.40;;
64826;SDS011;51265;53.972;12.286;2023-07-16T13:13:07;2.50;;;1.40;;
64826;SDS011;51265;53.972;12.286;2023-07-16T13:15:33;3.60;;;1.40;;
64826;SDS011;51265;53.972;12.286;2023-07-16T13:18:00;3.60;;;1.40;;
64826;SDS011;51265;53.972;12.286;2023-07-16T13:20:26;2.58;;;1.30;;
64826;SDS011;51265;53.972;12.286;2023-07-16T13:22:52;7.72;;;1.35;;
64826;SDS011;51265;53.972;12.286;2023-07-16T13:25:18;2.67;;;1.48;;
64826;SDS011;51265;53.972;12.286;2023-07-16T13:27:45;4.18;;;1.50;;
64826;SDS011;51265;53.972;12.286;2023-07-16T13:30:11;5.47;;;1.73;;
64826;SDS011;51265;53.972;12.286;2023-07-16T13:32:37;5.85;;;1.75;;
64826;SDS011;51265;53.972;12.286;2023-07-16T13:35:04;3.83;;;1.73;;
64826;SDS011;51265;53.972;12.286;2023-07-16T13:37:30;2.70;;;1.50;;
64826;SDS011;51265;53.972;12.286;2023-07-16T13:39:56;4.07;;;1.30;;
64826;SDS011;51265;53.972;12.286;2023-07-16T13:42:22;3.78;;;1.60;;
64826;SDS011;51265;53.972;12.286;2023-07-16T13:44:49;6.75;;;1.70;;
64826;SDS011;51265;53.972;12.286;2023-07-16T13:47:15;3.13;;;1.73;;
64826;SDS011;51265;53.972;12.286;2023-07-16T13:49:41;3.33;;;1.63;;
64826;SDS011;51265;53.972;12.286;2023-07-16T13:52:07;7.55;;;1.70;;
64826;SDS011;51265;53.972;12.286;2023-07-16T13:54:33;3.17;;;1.67;;
64826;SDS011;51265;53.972;12.286;2023-07-16T13:57:00;3.97;;;1.40;;
64826;SDS011;51265;53.972;12.286;2023-07-16T13:59:26;3.50;;;1.63;;
64826;SDS011;51265;53.972;12.286;2023-07-16T14:01:59;4.50;;;1.77;;
64826;SDS011;51265;53.972;12.286;2023-07-16T14:04:27;6.28;;;1.83;;
64826;SDS011;51265;53.972;12.286;2023-07-16T14:06:53;3.53;;;1.50;;
64826;SDS011;51265;53.972;12.286;2023-07-16T14:09:20;3.45;;;1.95;;
64826;SDS011;51265;53.972;12.286;2023-07-16T14:11:47;3.50;;;1.80;;
64826;SDS011;51265;53.972;12.286;2023-07-16T14:14:14;3.47;;;1.85;;
64826;SDS011;51265;53.972;12.286;2023-07-16T14:16:41;5.00;;;1.75;;
64826;SDS011;51265;53.972;12.286;2023-07-16T14:19:07;3.83;;;1.77;;
64826;SDS011;51265;53.972;12.286;2023-07-16T14:21:33;3.83;;;2.08;;
64826;SDS011;51265;53.972;12.286;2023-07-16T14:23:59;5.45;;;1.83;;
64826;SDS011;51265;53.972;12.286;2023-07-16T14:26:26;4.70;;;1.80;;
64826;SDS011;51265;53.972;12.286;2023-07-16T14:28:52;2.13;;;1.35;;
64826;SDS011;51265;53.972;12.286;2023-07-16T14:31:18;5.15;;;1.67;;
64826;SDS011;51265;53.972;12.286;2023-07-16T14:33:45;2.95;;;1.60;;
64826;SDS011;51265;53.972;12.286;2023-07-16T14:36:11;4.72;;;2.13;;
64826;SDS011;51265;53.972;12.286;2023-07-16T14:38:37;4.38;;;2.13;;
64826;SDS011;51265;53.972;12.286;2023-07-16T14:41:03;5.43;;;1.90;;
64826;SDS011;51265;53.972;12.286;2023-07-16T14:43:32;4.20;;;2.00;;